Time;durP1;ratioP1;P1;durP2;ratioP2;P2;SDS_P1;SDS_P2;PMS_P1;PMS_P2;Temp;Humidity;BMP_temperature;BMP_pressure;BME280_temperature;BME280_humidity;BME280_pressure;Samples;Min_cycle;Max_cycle;Signal;HPM_P1;HPM_P2
2022/01/02 00:00:14;;;;;;;14.27;10.15;;;23.00;35.60;;;;;;5129086;27;20051;-69
2022/01/02 00:02:42;;;;;;;11.88;9.38;;;22.90;35.50;;;;;;5129936;27;20049;-69
2022/01/02 00:05:12;;;;;;;12.07;9.30;;;23.00;35.60;;;;;;5128850;27;20051;-70
2022/01/02 00:08:03;;;;;;;12.60;9.43;;;23.00;35.50;;;;;;5130216;27;20470;-70
2022/01/02 00:10:37;;;;;;;11.23;8.48;;;22.90;35.50;;;;;;5113508;27;20071;-69
2022/01/02 00:13:06;;;;;;;11.85;9.70;;;23.00;35.60;;;;;;5130143;27;20085;-69
2022/01/02 00:15:33;;;;;;;12.00;9.50;;;23.00;35.50;;;;;;5127949;27;20054;-69
2022/01/02 00:18:11;;;;;;;11.40;9.30;;;23.00;35.60;;;;;;5111432;27;20502;-69
2022/01/02 00:20:49;;;;;;;11.23;8.50;;;22.90;35.50;;;;;;5129029;27;20043;-69
2022/01/02 00:23:20;;;;;;;13.38;9.77;;;22.90;35.50;;;;;;5129809;27;20146;-69
2022/01/02 00:25:55;;;;;;;12.30;9.50;;;22.90;35.40;;;;;;5128804;27;20122;-69
2022/01/02 00:28:22;;;;;;;10.70;8.70;;;22.90;35.40;;;;;;5129014;27;20050;-69
2022/01/02 00:30:50;;;;;;;11.68;9.23;;;22.90;35.50;;;;;;5128222;27;20078;-69
2022/01/02 00:33:19;;;;;;;11.18;8.07;;;22.90;35.40;;;;;;5129095;27;20047;-69
2022/01/02 00:35:47;;;;;;;12.70;9.40;;;22.90;35.40;;;;;;5128332;27;20338;-70
2022/01/02 00:38:22;;;;;;;12.43;8.52;;;22.90;35.40;;;;;;5129405;27;20092;-69
2022/01/02 00:40:53;;;;;;;11.20;8.07;;;22.90;35.50;;;;;;5110118;27;20260;-70
2022/01/02 00:43:38;;;;;;;11.93;9.45;;;22.90;35.50;;;;;;5129129;27;20047;-69
2022/01/02 00:46:10;;;;;;;12.60;8.57;;;22.90;35.50;;;;;;5127966;27;20071;-69
2022/01/02 00:48:42;;;;;;;12.93;9.30;;;22.90;35.50;;;;;;5129266;27;20039;-69
2022/01/02 00:51:34;;;;;;;11.05;8.70;;;22.90;35.60;;;;;;5127934;27;20110;-70
2022/01/02 00:54:02;;;;;;;10.55;8.27;;;22.90;35.50;;;;;;5129245;27;20101;-69
2022/01/02 00:56:31;;;;;;;10.93;8.65;;;22.90;35.50;;;;;;5128023;27;20171;-69
2022/01/02 00:59:01;;;;;;;11.32;8.75;;;22.90;35.60;;;;;;5128577;27;20531;-70
2022/01/02 01:01:33;;;;;;;10.15;8.40;;;22.90;35.50;;;;;;5127911;27;20051;-69
2022/01/02 01:04:03;;;;;;;12.95;8.68;;;22.90;35.50;;;;;;5129485;27;20039;-69
2022/01/02 01:06:32;;;;;;;11.68;8.68;;;22.90;35.60;;;;;;5127408;27;20504;-68
2022/01/02 01:09:05;;;;;;;12.00;8.65;;;22.90;35.60;;;;;;5128977;27;20715;-68
2022/01/02 01:11:33;;;;;;;11.10;8.80;;;22.80;35.50;;;;;;5109749;27;20499;-69
2022/01/02 01:14:01;;;;;;;11.35;8.35;;;22.80;35.50;;;;;;5128431;27;20096;-71
2022/01/02 01:16:28;;;;;;;11.40;8.52;;;22.80;35.50;;;;;;5127609;27;20077;-69
2022/01/02 01:18:57;;;;;;;12.25;9.07;;;22.80;35.50;;;;;;5128595;27;20043;-69
2022/01/02 01:21:25;;;;;;;11.55;8.45;;;22.80;35.50;;;;;;5127032;27;20079;-69
2022/01/02 01:23:52;;;;;;;11.60;8.52;;;22.80;35.50;;;;;;5128562;27;20073;-70
2022/01/02 01:26:19;;;;;;;11.70;9.20;;;22.80;35.50;;;;;;5127451;27;20551;-69
2022/01/02 01:28:47;;;;;;;10.32;7.90;;;22.80;35.50;;;;;;5126857;27;20043;-69
2022/01/02 01:31:14;;;;;;;9.82;7.68;;;22.80;35.50;;;;;;5127313;27;20054;-69
2022/01/02 01:33:41;;;;;;;10.65;8.23;;;22.80;35.60;;;;;;5128332;27;20350;-69
2022/01/02 01:36:08;;;;;;;10.63;8.07;;;22.80;35.50;;;;;;5127059;27;20450;-69
2022/01/02 01:38:35;;;;;;;10.73;8.00;;;22.80;35.50;;;;;;5128061;27;20434;-69
2022/01/02 01:41:19;;;;;;;10.60;8.07;;;22.80;35.50;;;;;;5126553;27;20047;-70
2022/01/02 01:46:35;;;;;;;9.98;7.95;;;22.80;35.60;;;;;;5126572;27;20108;-69
2022/01/02 01:49:14;;;;;;;12.05;8.10;;;22.80;35.60;;;;;;5128083;27;20043;-73
2022/01/02 01:51:42;;;;;;;9.48;7.55;;;22.80;35.60;;;;;;5126561;27;20581;-70
2022/01/02 01:54:10;;;;;;;9.57;8.13;;;22.80;35.60;;;;;;5127877;27;20134;-69
2022/01/02 01:56:38;;;;;;;10.60;7.75;;;22.80;35.60;;;;;;5126629;27;20321;-69
2022/01/02 01:59:06;;;;;;;9.57;7.28;;;22.80;35.60;;;;;;5127860;27;20040;-70
2022/01/02 02:01:34;;;;;;;9.75;7.50;;;22.80;35.60;;;;;;5126859;27;20122;-69
2022/01/02 02:04:01;;;;;;;9.30;7.40;;;22.80;35.60;;;;;;5127527;27;20502;-69
2022/01/02 02:06:28;;;;;;;9.90;7.25;;;22.80;35.60;;;;;;5126884;27;20046;-69
2022/01/02 02:08:59;;;;;;;8.48;6.90;;;22.80;35.60;;;;;;5127091;27;20335;-69
2022/01/02 02:11:28;;;;;;;10.98;7.57;;;22.80;35.50;;;;;;5126333;27;20078;-69
2022/01/02 02:13:56;;;;;;;9.52;7.15;;;22.80;35.50;;;;;;5127263;27;20535;-69
2022/01/02 02:16:23;;;;;;;9.88;8.23;;;22.80;35.50;;;;;;5126563;27;20093;-70
2022/01/02 02:18:51;;;;;;;10.45;7.65;;;22.80;35.50;;;;;;5127007;27;20045;-70
2022/01/02 02:21:33;;;;;;;9.65;7.43;;;22.80;35.50;;;;;;5108512;27;20077;-69
2022/01/02 02:24:03;;;;;;;9.80;7.18;;;22.80;35.50;;;;;;5127176;27;20142;-69
2022/01/02 02:26:32;;;;;;;9.77;7.20;;;22.80;35.60;;;;;;5126637;27;20045;-69
2022/01/02 02:29:01;;;;;;;10.48;7.28;;;22.80;35.50;;;;;;5126776;27;20079;-69
2022/01/02 02:31:28;;;;;;;8.88;6.97;;;22.70;35.60;;;;;;5126516;27;20139;-69
2022/01/02 02:33:56;;;;;;;7.75;6.63;;;22.70;35.50;;;;;;5127056;27;20116;-68
2022/01/02 02:36:23;;;;;;;10.30;7.22;;;22.70;35.50;;;;;;5126349;27;20267;-69
2022/01/02 02:38:50;;;;;;;8.93;7.22;;;22.70;35.50;;;;;;5126912;27;20074;-69
2022/01/02 02:41:17;;;;;;;7.75;6.78;;;22.70;35.50;;;;;;5125667;27;20134;-69
2022/01/02 02:43:54;;;;;;;10.05;7.38;;;22.70;35.50;;;;;;5108663;28;20126;-69
2022/01/02 02:49:08;;;;;;;9.43;6.90;;;22.70;35.60;;;;;;5126879;28;20450;-68
2022/01/02 02:51:53;;;;;;;8.43;6.57;;;22.70;35.50;;;;;;5126207;28;20057;-69
2022/01/02 02:54:23;;;;;;;9.23;6.88;;;22.70;35.60;;;;;;5127208;28;20144;-69
2022/01/02 02:56:56;;;;;;;8.07;6.72;;;22.70;35.50;;;;;;5126326;28;20108;-69
2022/01/02 02:59:29;;;;;;;8.15;6.25;;;22.70;36.10;;;;;;5126553;28;20126;-69
2022/01/02 03:05:01;;;;;;;7.97;6.50;;;22.70;35.60;;;;;;5126049;28;20053;-68
2022/01/02 03:07:29;;;;;;;9.00;7.05;;;22.70;36.10;;;;;;5126591;28;20065;-69
2022/01/02 03:09:58;;;;;;;9.35;7.15;;;22.70;35.60;;;;;;5126219;28;20503;-69
2022/01/02 03:12:25;;;;;;;7.47;6.10;;;22.60;35.50;;;;;;5126815;28;20043;-69
2022/01/02 03:14:53;;;;;;;8.45;6.28;;;22.70;35.60;;;;;;5126133;28;20427;-68
2022/01/02 03:17:20;;;;;;;7.97;6.30;;;22.60;35.50;;;;;;5126413;28;20043;-69
2022/01/02 03:19:47;;;;;;;9.43;6.93;;;22.70;35.60;;;;;;5126454;28;20443;-69
2022/01/02 03:22:14;;;;;;;8.15;6.45;;;22.60;35.50;;;;;;5108053;28;20092;-68
2022/01/02 03:24:41;;;;;;;9.02;6.82;;;22.60;35.50;;;;;;5125938;28;20142;-69
2022/01/02 03:27:17;;;;;;;8.45;6.47;;;22.60;35.60;;;;;;5126432;28;20502;-68
2022/01/02 03:29:45;;;;;;;7.75;5.90;;;22.60;35.50;;;;;;5125602;28;20492;-69
2022/01/02 03:32:12;;;;;;;8.18;6.20;;;22.60;35.50;;;;;;5126569;28;20122;-69
2022/01/02 03:34:39;;;;;;;8.32;6.32;;;22.60;35.50;;;;;;5125715;28;20130;-68
2022/01/02 03:37:06;;;;;;;8.00;6.28;;;22.60;35.50;;;;;;5126270;28;20393;-69
2022/01/02 03:39:36;;;;;;;8.55;6.28;;;22.70;35.60;;;;;;5125697;28;20047;-69
2022/01/02 03:42:03;;;;;;;7.63;5.78;;;22.60;35.50;;;;;;5126531;28;20546;-69
2022/01/02 03:44:31;;;;;;;7.45;5.72;;;22.60;35.50;;;;;;5107624;28;20145;-69
2022/01/02 03:46:58;;;;;;;7.90;6.55;;;22.60;35.60;;;;;;5126225;28;20434;-70
2022/01/02 03:49:25;;;;;;;6.95;5.93;;;22.60;35.50;;;;;;5107984;28;20075;-69
2022/01/02 03:54:58;;;;;;;7.78;5.95;;;22.60;35.50;;;;;;5129183;27;20142;-69
2022/01/02 03:57:25;;;;;;;7.75;6.18;;;22.70;35.60;;;;;;5130190;27;20043;-70
2022/01/02 03:59:52;;;;;;;7.25;5.95;;;22.60;35.50;;;;;;5129074;27;20228;-68
2022/01/02 04:02:20;;;;;;;6.57;5.28;;;22.60;35.50;;;;;;5130166;27;20039;-69
2022/01/02 04:04:47;;;;;;;7.45;5.57;;;22.60;35.50;;;;;;5110537;27;20039;-69
2022/01/02 04:07:14;;;;;;;8.82;6.28;;;22.60;35.50;;;;;;5130416;27;20472;-69
2022/01/02 04:09:41;;;;;;;6.95;5.95;;;22.70;35.50;;;;;;5128856;27;20053;-69
2022/01/02 04:12:08;;;;;;;9.20;5.90;;;22.60;35.40;;;;;;5129561;27;20078;-68
2022/01/02 04:14:35;;;;;;;7.10;5.70;;;22.60;35.50;;;;;;5128724;27;20078;-69
2022/01/02 04:17:35;;;;;;;8.05;6.05;;;22.60;35.50;;;;;;5129654;27;20146;-69
2022/01/02 04:20:04;;;;;;;7.05;5.35;;;22.60;35.50;;;;;;5128679;27;20307;-69
2022/01/02 04:22:32;;;;;;;8.43;6.10;;;22.60;35.50;;;;;;5111700;27;20264;-69
2022/01/02 04:24:59;;;;;;;7.65;5.68;;;22.60;35.50;;;;;;5128704;27;20047;-69
2022/01/02 04:27:27;;;;;;;7.43;5.60;;;22.60;35.50;;;;;;5129812;27;20044;-69
2022/01/02 04:29:54;;;;;;;8.32;5.32;;;22.60;35.50;;;;;;5128402;27;20039;-69
2022/01/02 04:32:21;;;;;;;7.15;5.53;;;22.60;35.50;;;;;;5129919;27;20153;-69
2022/01/02 04:34:48;;;;;;;7.55;4.95;;;22.50;36.00;;;;;;5127854;27;20650;-69
2022/01/02 04:37:15;;;;;;;6.18;4.88;;;22.50;35.50;;;;;;5111303;27;20043;-69
2022/01/02 04:39:43;;;;;;;7.53;5.55;;;22.50;35.40;;;;;;5128034;27;20047;-69
2022/01/02 04:42:20;;;;;;;7.00;5.70;;;22.50;35.50;;;;;;5129698;27;20093;-69
2022/01/02 04:44:47;;;;;;;6.90;5.80;;;22.50;35.50;;;;;;5127880;27;20075;-70
2022/01/02 04:47:15;;;;;;;7.72;5.30;;;22.50;35.50;;;;;;5129156;27;20067;-69
2022/01/02 04:49:42;;;;;;;6.95;5.60;;;22.50;35.50;;;;;;5109866;27;20168;-69
2022/01/02 04:52:09;;;;;;;6.45;5.05;;;22.50;35.50;;;;;;5110603;27;20484;-69
2022/01/02 04:54:36;;;;;;;6.53;5.43;;;22.50;35.50;;;;;;5128595;27;20138;-69
2022/01/02 04:57:03;;;;;;;7.72;5.70;;;22.50;35.50;;;;;;5128970;27;20126;-68
2022/01/02 04:59:31;;;;;;;5.20;4.70;;;22.50;35.50;;;;;;5127949;27;20104;-69
2022/01/02 05:01:58;;;;;;;7.95;5.40;;;22.50;35.50;;;;;;5128573;27;20046;-69
2022/01/02 05:04:26;;;;;;;6.88;5.47;;;22.50;35.50;;;;;;5109652;27;20314;-68
2022/01/02 05:09:57;;;;;;;6.45;5.18;;;22.50;35.50;;;;;;5127335;27;20070;-68
2022/01/02 05:12:25;;;;;;;5.90;5.10;;;22.50;35.50;;;;;;5128653;27;20043;-68
2022/01/02 05:14:53;;;;;;;6.43;4.65;;;22.50;35.50;;;;;;5127113;27;20066;-69
2022/01/02 05:17:20;;;;;;;6.45;5.13;;;22.50;35.50;;;;;;5128548;27;20086;-68
2022/01/02 05:19:47;;;;;;;5.43;4.53;;;22.50;35.50;;;;;;5128309;27;20487;-69
2022/01/02 05:22:14;;;;;;;6.57;5.07;;;22.50;35.50;;;;;;5128624;27;20071;-69
2022/01/02 05:24:41;;;;;;;5.90;4.82;;;22.50;35.50;;;;;;5127443;27;20047;-69
2022/01/02 05:27:09;;;;;;;5.78;4.40;;;22.50;35.50;;;;;;5128372;27;20453;-69
2022/01/02 05:29:36;;;;;;;6.85;5.25;;;22.50;35.50;;;;;;5127112;27;20237;-69
2022/01/02 05:32:18;;;;;;;5.68;4.90;;;22.50;35.50;;;;;;5128273;27;20543;-68
2022/01/02 05:34:45;;;;;;;5.93;5.03;;;22.50;35.40;;;;;;5126523;27;20040;-69
2022/01/02 05:37:12;;;;;;;5.97;4.63;;;22.50;35.50;;;;;;5128213;27;20499;-69
2022/01/02 05:39:40;;;;;;;5.18;4.30;;;22.50;35.40;;;;;;5127377;27;20043;-69
2022/01/02 05:42:08;;;;;;;5.65;4.53;;;22.50;35.50;;;;;;5128169;27;20094;-69
2022/01/02 05:44:35;;;;;;;5.40;4.65;;;22.50;35.40;;;;;;5127171;27;20307;-69
2022/01/02 05:47:02;;;;;;;6.10;4.65;;;22.50;35.40;;;;;;5127318;27;20096;-69
2022/01/02 05:49:29;;;;;;;5.50;4.20;;;22.50;35.40;;;;;;5127594;27;20311;-69
2022/01/02 05:51:57;;;;;;;6.00;4.63;;;22.50;35.40;;;;;;5127416;27;20047;-69
2022/01/02 05:54:24;;;;;;;5.72;4.50;;;22.50;35.40;;;;;;5127445;27;20130;-69
2022/01/02 05:57:29;;;;;;;5.57;4.22;;;22.50;35.40;;;;;;5126528;27;20061;-69
2022/01/02 05:59:56;;;;;;;4.85;3.97;;;22.50;35.40;;;;;;5126654;27;20105;-69
2022/01/02 06:02:23;;;;;;;5.22;4.20;;;22.50;35.40;;;;;;5128163;27;20329;-69
2022/01/02 06:04:50;;;;;;;5.13;4.60;;;22.50;35.40;;;;;;5126485;27;20208;-69
2022/01/02 06:07:17;;;;;;;6.47;4.75;;;22.50;35.30;;;;;;5128067;27;20579;-69
2022/01/02 06:09:45;;;;;;;5.55;4.60;;;22.40;35.60;;;;;;5126579;27;20047;-69
2022/01/02 06:12:12;;;;;;;5.68;4.70;;;22.50;34.90;;;;;;5126976;27;20047;-69
2022/01/02 06:14:39;;;;;;;5.00;4.18;;;22.40;34.80;;;;;;5126458;27;20086;-69
2022/01/02 06:17:06;;;;;;;5.88;4.30;;;22.40;34.60;;;;;;5127103;27;20134;-70
2022/01/02 06:19:33;;;;;;;5.75;4.70;;;22.50;34.70;;;;;;5126876;27;20047;-69
2022/01/02 06:22:18;;;;;;;5.70;4.63;;;22.50;34.50;;;;;;5108626;27;20086;-69
2022/01/02 06:24:45;;;;;;;6.68;4.85;;;22.40;34.30;;;;;;5126622;27;20611;-69
2022/01/02 06:27:12;;;;;;;6.28;4.57;;;22.50;34.40;;;;;;5127056;27;20148;-69
2022/01/02 06:29:39;;;;;;;4.78;4.18;;;22.40;34.20;;;;;;5126623;27;20723;-70
2022/01/02 06:32:07;;;;;;;5.72;4.45;;;22.40;34.20;;;;;;5126639;27;20137;-69
2022/01/02 06:34:34;;;;;;;4.40;4.00;;;22.40;34.20;;;;;;5126313;27;20242;-69
2022/01/02 06:37:01;;;;;;;5.97;4.88;;;22.40;34.10;;;;;;5126560;27;20476;-69
2022/01/02 06:39:28;;;;;;;6.03;5.07;;;22.40;34.10;;;;;;5127216;27;20043;-69
2022/01/02 06:42:00;;;;;;;5.05;4.30;;;22.40;34.00;;;;;;5126488;27;20134;-69
2022/01/02 06:44:27;;;;;;;5.25;4.75;;;22.40;34.00;;;;;;5126745;27;20047;-69
2022/01/02 06:46:54;;;;;;;6.55;4.80;;;22.40;34.00;;;;;;5125798;28;20101;-69
2022/01/02 06:49:21;;;;;;;6.80;5.43;;;22.40;34.00;;;;;;5127444;28;20134;-70
2022/01/02 06:51:48;;;;;;;5.03;4.50;;;22.40;34.00;;;;;;5091067;28;20119;-70
2022/01/02 06:54:16;;;;;;;4.93;4.43;;;22.40;34.00;;;;;;5126903;28;20082;-69
2022/01/02 06:56:43;;;;;;;4.88;4.38;;;22.40;34.10;;;;;;5125735;28;20078;-70
2022/01/02 06:59:10;;;;;;;6.68;4.50;;;22.30;34.10;;;;;;5126454;28;20075;-69
2022/01/02 07:01:37;;;;;;;5.75;4.57;;;22.40;34.10;;;;;;5125729;28;20511;-69
2022/01/02 07:04:04;;;;;;;6.90;5.68;;;22.30;34.00;;;;;;5127053;28;20051;-69
2022/01/02 07:06:31;;;;;;;5.40;4.75;;;22.40;34.00;;;;;;5126005;28;20480;-69
2022/01/02 07:08:59;;;;;;;5.70;5.10;;;22.40;34.00;;;;;;5126994;27;20076;-69
2022/01/02 07:11:26;;;;;;;6.15;5.55;;;22.40;33.90;;;;;;5125496;28;20463;-69
2022/01/02 07:13:53;;;;;;;6.88;5.40;;;22.50;33.90;;;;;;5127520;28;20043;-69
2022/01/02 07:16:20;;;;;;;8.02;5.50;;;22.50;33.90;;;;;;5125781;28;20130;-69
2022/01/02 07:18:47;;;;;;;6.22;5.03;;;22.60;33.80;;;;;;5126622;28;20082;-70
2022/01/02 07:21:17;;;;;;;7.00;5.40;;;22.60;33.70;;;;;;5126214;28;20530;-70
2022/01/02 07:23:45;;;;;;;5.47;4.90;;;22.70;33.70;;;;;;5126179;28;20556;-69
2022/01/02 07:26:12;;;;;;;5.78;5.03;;;22.70;33.60;;;;;;5128601;27;20043;-69
2022/01/02 07:28:39;;;;;;;5.78;5.10;;;22.80;33.60;;;;;;5130841;27;20111;-69
2022/01/02 07:31:06;;;;;;;6.95;5.63;;;22.80;33.50;;;;;;5129648;27;20075;-70
2022/01/02 07:33:33;;;;;;;5.35;4.85;;;22.90;33.40;;;;;;5129860;27;20403;-70
2022/01/02 07:36:00;;;;;;;6.88;6.13;;;22.90;33.30;;;;;;5129408;27;20454;-70
2022/01/02 07:38:31;;;;;;;6.88;5.95;;;23.00;33.80;;;;;;5130533;27;20043;-70
2022/01/02 07:40:58;;;;;;;7.75;6.55;;;23.00;33.00;;;;;;5129697;27;20126;-69
2022/01/02 07:43:25;;;;;;;7.55;6.25;;;23.10;32.90;;;;;;5129390;27;20113;-70
2022/01/02 07:45:52;;;;;;;8.80;6.50;;;23.20;32.90;;;;;;5130046;27;20351;-69
2022/01/02 07:48:20;;;;;;;8.82;6.65;;;23.20;32.80;;;;;;5095173;27;20126;-69
2022/01/02 07:50:47;;;;;;;9.75;7.50;;;23.30;32.70;;;;;;5129704;27;20046;-70
2022/01/02 07:53:14;;;;;;;7.63;6.78;;;23.30;32.60;;;;;;5130238;27;20547;-70
2022/01/02 07:55:43;;;;;;;7.07;6.22;;;23.40;32.60;;;;;;5129983;27;20350;-69
2022/01/02 07:58:12;;;;;;;7.97;6.78;;;23.40;32.50;;;;;;5129374;27;20054;-70
2022/01/02 08:00:40;;;;;;;7.72;6.60;;;23.50;32.50;;;;;;5128744;27;20129;-69
2022/01/02 08:03:07;;;;;;;9.52;7.47;;;23.50;32.40;;;;;;5129683;27;20043;-69
2022/01/02 08:05:39;;;;;;;9.57;7.35;;;23.60;32.40;;;;;;5111671;27;20282;-69
2022/01/02 08:08:06;;;;;;;8.57;7.47;;;23.60;32.30;;;;;;5129913;27;20126;-70
2022/01/02 08:10:33;;;;;;;10.27;7.72;;;23.70;32.30;;;;;;5142635;27;20130;-69
2022/01/02 08:13:00;;;;;;;9.80;7.70;;;23.70;32.20;;;;;;5149747;27;20076;-69
2022/01/02 08:15:27;;;;;;;10.05;7.55;;;23.70;32.20;;;;;;5150138;27;20047;-69
2022/01/02 08:17:55;;;;;;;8.93;7.95;;;23.80;32.10;;;;;;5150308;27;20047;-70
2022/01/02 08:20:22;;;;;;;10.65;8.80;;;23.90;32.00;;;;;;5149992;27;20120;-70
2022/01/02 08:22:49;;;;;;;11.15;8.82;;;23.90;31.90;;;;;;5149686;27;20089;-69
2022/01/02 08:25:16;;;;;;;10.50;8.75;;;24.00;31.90;;;;;;5149595;27;20513;-69
2022/01/02 08:27:43;;;;;;;11.32;9.23;;;24.00;31.80;;;;;;5150289;27;20507;-69
2022/01/02 08:30:11;;;;;;;11.55;9.65;;;24.10;31.80;;;;;;5149280;27;20165;-70
2022/01/02 08:32:38;;;;;;;10.75;8.38;;;24.10;31.70;;;;;;5150308;27;20529;-69
2022/01/02 08:35:07;;;;;;;10.73;9.25;;;24.20;31.70;;;;;;5149356;27;20047;-70
2022/01/02 08:37:34;;;;;;;12.02;10.15;;;24.20;31.60;;;;;;5149179;27;20518;-71
2022/01/02 08:40:01;;;;;;;12.05;9.90;;;24.30;31.60;;;;;;5149361;27;20042;-70
2022/01/02 08:42:28;;;;;;;11.90;9.52;;;24.30;31.50;;;;;;5149794;27;20091;-70
2022/01/02 08:44:55;;;;;;;12.52;9.43;;;24.30;31.40;;;;;;5149344;27;20632;-69
2022/01/02 08:47:22;;;;;;;11.93;9.80;;;24.40;31.40;;;;;;5149297;27;20053;-70
2022/01/02 08:49:49;;;;;;;13.68;10.02;;;24.50;31.40;;;;;;5149057;27;20092;-70
2022/01/02 08:52:17;;;;;;;12.52;10.18;;;24.50;31.30;;;;;;5131792;27;20078;-70
2022/01/02 08:54:45;;;;;;;13.60;9.98;;;24.60;31.30;;;;;;5148572;27;20109;-71
2022/01/02 08:57:12;;;;;;;12.80;10.27;;;24.60;31.20;;;;;;5150237;27;20050;-72
2022/01/02 08:59:40;;;;;;;11.23;8.88;;;24.70;31.20;;;;;;5148367;27;20085;-70
2022/01/02 09:02:07;;;;;;;12.02;9.90;;;24.70;31.10;;;;;;5148652;27;20483;-70
2022/01/02 09:04:34;;;;;;;11.65;9.68;;;24.80;31.00;;;;;;5148619;27;20081;-70
2022/01/02 09:07:34;;;;;;;12.27;9.93;;;24.90;31.00;;;;;;5149055;27;20047;-70
2022/01/02 09:10:01;;;;;;;10.63;9.53;;;24.90;30.90;;;;;;5148797;27;20330;-69
2022/01/02 09:12:28;;;;;;;13.40;10.02;;;24.90;30.80;;;;;;5149587;27;20081;-70
2022/01/02 09:14:55;;;;;;;10.30;9.05;;;25.00;30.80;;;;;;5148507;27;20315;-70
2022/01/02 09:17:22;;;;;;;10.32;9.23;;;25.00;30.70;;;;;;5149061;27;20199;-71
2022/01/02 09:19:52;;;;;;;12.43;9.52;;;25.10;30.80;;;;;;5148504;27;20126;-70
2022/01/02 09:22:19;;;;;;;11.23;9.63;;;25.10;30.70;;;;;;5149257;27;20050;-70
2022/01/02 09:24:46;;;;;;;12.38;9.68;;;25.10;30.70;;;;;;5148273;27;20043;-70
2022/01/02 09:27:13;;;;;;;12.23;9.68;;;25.10;30.60;;;;;;5149248;27;20078;-70
2022/01/02 09:29:40;;;;;;;12.18;9.90;;;25.10;30.60;;;;;;5147889;27;20123;-70
2022/01/02 09:32:20;;;;;;;12.57;9.68;;;25.10;30.60;;;;;;5148827;27;20082;-70
2022/01/02 09:34:47;;;;;;;10.13;8.77;;;25.10;30.60;;;;;;5148212;27;20085;-70
2022/01/02 09:37:14;;;;;;;11.07;9.07;;;25.10;30.70;;;;;;5148607;27;20127;-70
2022/01/02 09:39:41;;;;;;;11.20;9.55;;;25.10;30.80;;;;;;5147971;27;20445;-70
2022/01/02 09:42:12;;;;;;;11.32;9.65;;;25.10;30.80;;;;;;5148855;27;20089;-70
2022/01/02 09:44:39;;;;;;;10.77;9.20;;;25.00;30.80;;;;;;5147596;27;20270;-70
2022/01/02 09:47:09;;;;;;;11.07;9.40;;;25.00;30.90;;;;;;5148465;27;20043;-70
2022/01/02 09:49:39;;;;;;;9.88;8.88;;;25.00;31.00;;;;;;5146635;27;20061;-71
2022/01/02 09:52:07;;;;;;;10.82;9.13;;;25.00;31.00;;;;;;5148389;27;20474;-70
2022/01/02 09:54:34;;;;;;;11.52;9.68;;;25.00;31.00;;;;;;5128931;27;20130;-70
2022/01/02 09:57:02;;;;;;;10.02;8.73;;;24.90;31.00;;;;;;5148483;27;20487;-70
2022/01/02 09:59:29;;;;;;;10.75;9.65;;;25.00;31.10;;;;;;5147559;27;20047;-70
2022/01/02 10:01:59;;;;;;;9.52;8.52;;;24.90;31.20;;;;;;5148290;27;20238;-70
2022/01/02 10:04:38;;;;;;;10.82;9.07;;;24.90;31.20;;;;;;5147807;27;20425;-70
2022/01/02 10:07:26;;;;;;;11.15;9.05;;;24.90;31.20;;;;;;5147925;27;20043;-70
2022/01/02 10:09:53;;;;;;;10.45;8.60;;;24.90;31.20;;;;;;5147217;27;20461;-70
2022/01/02 10:12:22;;;;;;;11.18;9.52;;;24.90;31.30;;;;;;5148243;27;20485;-71
2022/01/02 10:15:14;;;;;;;11.63;9.23;;;24.90;31.30;;;;;;5147113;27;20053;-70
2022/01/02 10:18:13;;;;;;;8.93;8.02;;;24.90;31.40;;;;;;5147929;27;20294;-70
2022/01/02 10:20:45;;;;;;;11.43;9.45;;;24.90;31.40;;;;;;5147430;27;20056;-70
2022/01/02 10:23:22;;;;;;;9.70;8.23;;;24.90;31.40;;;;;;5148173;27;20050;-70
2022/01/02 10:25:56;;;;;;;10.23;8.85;;;24.90;31.40;;;;;;5147213;27;20450;-71
2022/01/02 10:28:39;;;;;;;8.52;7.68;;;24.90;31.50;;;;;;5148028;27;20549;-70
2022/01/02 10:31:15;;;;;;;9.82;8.38;;;24.90;31.50;;;;;;5146816;27;20718;-70
2022/01/02 10:33:59;;;;;;;7.90;6.90;;;24.90;31.50;;;;;;5148338;27;20070;-69
2022/01/02 10:36:42;;;;;;;8.35;7.50;;;24.90;31.50;;;;;;5146102;27;20461;-70
2022/01/02 10:39:11;;;;;;;8.93;7.43;;;25.00;31.50;;;;;;5147312;27;20038;-70
2022/01/02 10:41:41;;;;;;;8.57;6.93;;;25.00;31.60;;;;;;5146559;27;20043;-70
2022/01/02 10:44:30;;;;;;;8.55;6.90;;;25.00;31.60;;;;;;5147703;27;20443;-70
2022/01/02 10:50:23;;;;;;;6.32;5.72;;;25.00;31.70;;;;;;5146976;27;19925;-70
2022/01/02 10:52:50;;;;;;;6.82;5.95;;;25.00;31.70;;;;;;5147909;27;20090;-70
2022/01/02 10:55:20;;;;;;;7.72;6.65;;;25.00;31.70;;;;;;5146816;27;20043;-70
2022/01/02 10:57:49;;;;;;;7.10;6.40;;;25.00;31.70;;;;;;5147174;27;20081;-70
2022/01/02 11:00:18;;;;;;;7.38;6.22;;;25.00;31.80;;;;;;5148028;27;20073;-70
2022/01/02 11:02:46;;;;;;;7.15;6.45;;;25.10;31.80;;;;;;5152206;27;20078;-70
2022/01/02 11:05:16;;;;;;;6.50;5.85;;;25.00;31.80;;;;;;5150758;27;20476;-70
2022/01/02 11:07:45;;;;;;;6.60;5.95;;;25.10;31.90;;;;;;5151842;27;20058;-70
2022/01/02 11:10:16;;;;;;;6.75;6.03;;;25.10;31.80;;;;;;5151023;27;20042;-70
2022/01/02 11:12:44;;;;;;;6.32;5.72;;;25.10;31.80;;;;;;5151776;27;20053;-70
2022/01/02 11:15:18;;;;;;;6.28;5.25;;;25.10;31.80;;;;;;5151149;27;20073;-70
2022/01/02 11:17:45;;;;;;;5.63;5.07;;;25.10;31.80;;;;;;5151403;27;20134;-70
2022/01/02 11:20:15;;;;;;;5.53;5.00;;;25.10;31.80;;;;;;5150844;27;20414;-70
2022/01/02 11:23:03;;;;;;;;;;;25.10;31.70;;;;;;5149476;27;20495;-70
2022/01/02 11:25:51;;;;;;;5.20;4.70;;;25.20;32.30;;;;;;5129720;27;19974;-70
2022/01/02 11:28:35;;;;;;;6.35;5.43;;;25.20;31.70;;;;;;5130780;27;20682;-71
2022/01/02 11:31:04;;;;;;;5.25;4.75;;;25.20;31.70;;;;;;5128980;27;20047;-70
2022/01/02 11:33:35;;;;;;;5.90;4.82;;;25.20;31.70;;;;;;5130724;27;20105;-70
2022/01/02 11:36:27;;;;;;;5.88;4.88;;;25.20;31.70;;;;;;5129430;27;20113;-71
2022/01/02 11:39:05;;;;;;;5.63;4.30;;;25.20;31.70;;;;;;5131232;27;20051;-70
2022/01/02 11:41:50;;;;;;;4.18;3.83;;;25.20;31.70;;;;;;5129568;27;20575;-70
2022/01/02 11:44:22;;;;;;;4.40;4.00;;;25.20;31.70;;;;;;5130463;27;20113;-70
2022/01/02 11:46:57;;;;;;;5.68;4.68;;;25.30;31.80;;;;;;5129506;27;20122;-70
2022/01/02 11:49:39;;;;;;;4.95;4.45;;;25.30;31.80;;;;;;5112070;27;20126;-70
2022/01/02 11:52:22;;;;;;;4.68;4.18;;;25.30;31.80;;;;;;5129524;27;20511;-70
2022/01/02 11:54:51;;;;;;;3.67;3.38;;;25.30;31.70;;;;;;5129833;27;20043;-71
2022/01/02 11:57:42;;;;;;;4.20;3.78;;;25.30;31.70;;;;;;5129997;27;20255;-70
2022/01/02 12:00:09;;;;;;;4.30;3.90;;;25.30;31.70;;;;;;5127439;27;20138;-70
2022/01/02 12:02:37;;;;;;;4.55;4.10;;;25.30;31.70;;;;;;5137320;27;20054;-71
2022/01/02 12:05:12;;;;;;;3.50;3.20;;;25.30;31.70;;;;;;5119703;27;20047;-70
2022/01/02 12:07:51;;;;;;;3.17;2.88;;;25.30;31.70;;;;;;5124669;27;20138;-70
2022/01/02 12:10:30;;;;;;;3.15;2.85;;;25.40;31.70;;;;;;5108817;28;20043;-71
2022/01/02 12:13:17;;;;;;;3.88;3.55;;;25.40;31.70;;;;;;5108033;28;20055;-70
2022/01/02 12:16:06;;;;;;;3.17;2.78;;;25.40;31.70;;;;;;5108858;28;20043;-70
2022/01/02 12:18:55;;;;;;;3.70;3.15;;;25.40;31.60;;;;;;5078104;28;20078;-70
2022/01/02 12:21:22;;;;;;;3.60;2.90;;;25.40;31.70;;;;;;5108454;28;20090;-70
2022/01/02 12:23:53;;;;;;;3.30;3.00;;;25.40;31.70;;;;;;5109437;28;20079;-71
2022/01/02 12:26:35;;;;;;;3.55;3.25;;;25.40;31.70;;;;;;5108158;28;20039;-71
2022/01/02 12:29:06;;;;;;;3.40;3.10;;;25.40;31.70;;;;;;5109376;28;20043;-71
2022/01/02 12:31:44;;;;;;;3.10;2.80;;;25.40;31.70;;;;;;5107600;28;20048;-70
2022/01/02 12:34:19;;;;;;;3.22;2.92;;;25.40;31.70;;;;;;5109017;28;20061;-70
2022/01/02 12:36:49;;;;;;;2.97;2.67;;;25.40;31.70;;;;;;5107419;28;20101;-71
2022/01/02 12:39:29;;;;;;;2.67;2.47;;;25.40;31.70;;;;;;5108831;28;20104;-70
2022/01/02 12:45:05;;;;;;;2.60;2.40;;;25.40;31.80;;;;;;5108578;28;20089;-71
2022/01/02 12:47:33;;;;;;;2.88;2.58;;;25.40;31.80;;;;;;5107900;28;20438;-70
2022/01/02 12:50:00;;;;;;;2.70;2.50;;;25.40;31.80;;;;;;5107962;28;20043;-70
2022/01/02 12:52:27;;;;;;;2.47;2.38;;;25.40;31.80;;;;;;5108834;28;20113;-70
2022/01/02 12:54:54;;;;;;;2.80;2.50;;;25.40;31.80;;;;;;5107713;28;20065;-71
2022/01/02 12:57:23;;;;;;;3.38;2.80;;;25.40;31.80;;;;;;5108218;28;20134;-70
2022/01/02 12:59:55;;;;;;;2.50;2.30;;;25.40;31.70;;;;;;5107343;28;20738;-70
2022/01/02 13:02:25;;;;;;;2.42;2.22;;;25.40;31.70;;;;;;5108260;28;20071;-70
2022/01/02 13:04:55;;;;;;;3.08;2.30;;;25.40;31.70;;;;;;5108043;28;20044;-71
2022/01/02 13:07:27;;;;;;;3.85;2.53;;;25.40;31.70;;;;;;5108299;28;20044;-71
2022/01/02 13:09:58;;;;;;;3.03;2.72;;;25.40;31.60;;;;;;5118672;27;20134;-70
2022/01/02 13:12:28;;;;;;;2.60;2.40;;;25.40;31.70;;;;;;5128537;27;20415;-70
2022/01/02 13:14:59;;;;;;;;;;;25.40;31.70;;;;;;5128880;27;20124;-71
2022/01/02 13:17:41;;;;;;;2.05;1.95;;;25.40;31.60;;;;;;5128666;27;20014;-70
2022/01/02 13:20:18;;;;;;;2.78;2.45;;;25.40;31.60;;;;;;5128050;27;20047;-70